Time;durP1;ratioP1;P1;durP2;ratioP2;P2;SDS_P1;SDS_P2;PMS_P1;PMS_P2;Temp;Humidity;BMP_temperature;BMP_pressure;BME280_temperature;BME280_humidity;BME280_pressure;Samples;Min_cycle;Max_cycle;Signal;HPM_P1;HPM_P2
2022/03/23 00:00:46;;;;;;;21.13;13.13;;;3.30;99.90;;;;;;4992108;28;20415;-74
2022/03/23 00:03:16;;;;;;;19.37;12.90;;;3.30;99.90;;;;;;4990542;28;20552;-75
2022/03/23 00:05:42;;;;;;;22.90;12.70;;;3.30;99.90;;;;;;4991206;28;20177;-75
2022/03/23 00:08:08;;;;;;;19.30;13.30;;;3.20;99.90;;;;;;4991233;28;20477;-75
2022/03/23 00:10:34;;;;;;;19.67;12.33;;;3.20;99.90;;;;;;4992351;28;20440;-74
2022/03/23 00:13:01;;;;;;;21.83;12.53;;;3.20;99.90;;;;;;4990200;28;20917;-75
2022/03/23 00:15:30;;;;;;;17.40;10.90;;;3.20;99.90;;;;;;4990788;28;20493;-75
2022/03/23 00:17:56;;;;;;;16.77;12.30;;;3.10;99.90;;;;;;4990944;28;20422;-75
2022/03/23 00:20:23;;;;;;;20.00;12.27;;;3.10;99.90;;;;;;4992059;28;20470;-75
2022/03/23 00:22:48;;;;;;;19.10;11.77;;;3.10;99.90;;;;;;4990094;28;20564;-74
2022/03/23 00:25:14;;;;;;;16.33;11.80;;;3.00;99.90;;;;;;4991619;28;20441;-74
2022/03/23 00:27:40;;;;;;;16.87;11.37;;;3.00;99.90;;;;;;4991757;28;20594;-75
2022/03/23 00:30:06;;;;;;;21.03;11.40;;;2.90;99.90;;;;;;4991776;28;20684;-75
2022/03/23 00:32:32;;;;;;;20.87;11.70;;;2.90;99.90;;;;;;4991661;28;20207;-74
2022/03/23 00:34:58;;;;;;;18.23;12.13;;;2.90;99.90;;;;;;4990915;28;20458;-75
2022/03/23 00:37:25;;;;;;;16.93;11.00;;;2.80;99.90;;;;;;4990624;28;20238;-75
2022/03/23 00:39:50;;;;;;;16.00;10.20;;;2.80;99.90;;;;;;4990613;28;20501;-75
2022/03/23 00:42:16;;;;;;;16.83;10.80;;;2.70;99.90;;;;;;4989644;28;20203;-73
2022/03/23 00:44:43;;;;;;;19.77;11.77;;;2.70;99.90;;;;;;4989424;28;20562;-75
2022/03/23 00:47:09;;;;;;;20.20;12.37;;;2.70;99.90;;;;;;4991538;28;20189;-75
2022/03/23 00:49:35;;;;;;;12.10;9.97;;;2.60;99.90;;;;;;4990431;28;20428;-74
2022/03/23 00:52:05;;;;;;;14.07;10.00;;;2.60;99.90;;;;;;4989795;28;20439;-74
2022/03/23 00:54:34;;;;;;;19.43;10.33;;;2.60;99.90;;;;;;4991065;28;20483;-74
2022/03/23 00:57:01;;;;;;;15.10;9.37;;;2.60;99.90;;;;;;4989835;28;20521;-74
2022/03/23 00:59:27;;;;;;;18.70;10.40;;;2.60;99.90;;;;;;4990410;28;20462;-75
2022/03/23 01:01:53;;;;;;;15.13;10.57;;;2.50;99.90;;;;;;4989731;28;20459;-75
2022/03/23 01:04:20;;;;;;;16.90;9.80;;;2.50;99.90;;;;;;4988990;28;20785;-75
2022/03/23 01:06:46;;;;;;;14.00;9.23;;;2.50;99.90;;;;;;4989970;28;20506;-74
2022/03/23 01:09:12;;;;;;;15.47;10.23;;;2.50;99.90;;;;;;4991130;28;20407;-74
2022/03/23 01:11:39;;;;;;;12.37;9.37;;;2.50;99.90;;;;;;4989951;28;20520;-75
2022/03/23 01:14:05;;;;;;;16.50;10.40;;;2.40;99.90;;;;;;4988908;28;20466;-74
2022/03/23 01:16:32;;;;;;;14.27;9.40;;;2.40;99.90;;;;;;4989451;28;20420;-73
2022/03/23 01:18:57;;;;;;;16.07;9.47;;;2.30;99.90;;;;;;4990992;28;20417;-74
2022/03/23 01:21:23;;;;;;;18.40;9.37;;;2.30;99.90;;;;;;4989383;28;20465;-74
2022/03/23 01:23:48;;;;;;;14.00;9.40;;;2.30;99.90;;;;;;4988963;28;20677;-74
2022/03/23 01:26:14;;;;;;;14.20;9.23;;;2.20;99.90;;;;;;4990263;28;20188;-75
2022/03/23 01:28:40;;;;;;;16.70;9.80;;;2.20;99.90;;;;;;4991096;28;20191;-75
2022/03/23 01:31:05;;;;;;;15.13;10.00;;;2.20;99.90;;;;;;4989869;28;20206;-74
2022/03/23 01:33:32;;;;;;;16.97;9.60;;;2.20;99.90;;;;;;4988474;28;20208;-74
2022/03/23 01:35:57;;;;;;;21.33;10.30;;;2.20;99.90;;;;;;4989113;28;20410;-73
2022/03/23 01:38:23;;;;;;;15.90;9.80;;;2.20;99.90;;;;;;4989710;28;20844;-74
2022/03/23 01:40:49;;;;;;;13.87;10.10;;;2.20;99.90;;;;;;4989383;28;20184;-74
2022/03/23 01:43:14;;;;;;;15.03;10.20;;;2.10;99.90;;;;;;4989356;28;20177;-74
2022/03/23 01:45:40;;;;;;;16.97;10.40;;;2.00;99.90;;;;;;4990892;28;20182;-74
2022/03/23 01:48:06;;;;;;;17.73;9.70;;;2.00;99.90;;;;;;4990752;28;20200;-74
2022/03/23 01:50:31;;;;;;;18.03;10.20;;;2.00;99.90;;;;;;4990640;28;20178;-74
2022/03/23 01:52:57;;;;;;;15.53;10.77;;;2.00;99.90;;;;;;4988707;28;20216;-74
2022/03/23 01:55:24;;;;;;;19.93;10.23;;;2.00;99.90;;;;;;4990465;28;20289;-75
2022/03/23 01:57:52;;;;;;;16.03;10.87;;;2.00;99.90;;;;;;4974085;28;20177;-75
2022/03/23 03:30:57;;;;;;;13.43;10.00;;;1.10;99.90;;;;;;5974435;23;20438;-73
2022/03/23 03:33:23;;;;;;;17.80;9.20;;;1.10;99.90;;;;;;4970650;28;20452;-73
2022/03/23 03:35:49;;;;;;;14.10;8.47;;;1.00;99.90;;;;;;4973150;28;20266;-72
2022/03/23 03:38:14;;;;;;;12.90;9.00;;;1.00;99.90;;;;;;4974093;28;20395;-74
2022/03/23 03:40:40;;;;;;;15.60;9.30;;;1.00;99.90;;;;;;4969545;28;20586;-74
2022/03/23 03:43:05;;;;;;;12.03;9.60;;;1.00;99.90;;;;;;4973359;28;20643;-74
2022/03/23 03:45:31;;;;;;;20.40;8.50;;;1.00;99.90;;;;;;4973396;28;20559;-73
2022/03/23 03:47:56;;;;;;;13.30;8.30;;;0.90;99.90;;;;;;4973842;28;20178;-73
2022/03/23 03:50:22;;;;;;;14.70;8.90;;;0.90;99.90;;;;;;4973843;28;20182;-73
2022/03/23 03:52:48;;;;;;;13.50;9.60;;;0.90;99.90;;;;;;4973228;28;20221;-73
2022/03/23 03:55:13;;;;;;;16.63;8.30;;;0.90;99.90;;;;;;4972861;28;20683;-74
2022/03/23 03:57:39;;;;;;;14.07;9.20;;;0.80;99.90;;;;;;4973556;28;20541;-73
2022/03/23 04:00:05;;;;;;;14.20;9.10;;;0.80;99.90;;;;;;4973341;28;20184;-73
2022/03/23 04:02:31;;;;;;;13.27;9.07;;;0.80;99.90;;;;;;4972524;28;20197;-74
2022/03/23 04:04:56;;;;;;;13.67;9.27;;;0.80;99.90;;;;;;4973108;28;20483;-73
2022/03/23 04:07:22;;;;;;;13.20;8.73;;;0.80;99.90;;;;;;4973595;28;20233;-74
2022/03/23 04:09:47;;;;;;;13.83;9.30;;;0.80;99.90;;;;;;4973039;28;20664;-74
2022/03/23 04:12:13;;;;;;;13.90;9.20;;;0.80;99.90;;;;;;4973397;28;20736;-74
2022/03/23 04:14:38;;;;;;;14.60;10.07;;;0.70;99.90;;;;;;4972353;28;20204;-73
2022/03/23 04:17:04;;;;;;;12.67;8.50;;;0.70;99.90;;;;;;4973235;28;20207;-74
2022/03/23 04:19:30;;;;;;;22.13;10.50;;;0.70;99.90;;;;;;4972287;28;20192;-74
2022/03/23 04:21:55;;;;;;;17.60;9.93;;;0.60;99.90;;;;;;4972988;28;20193;-73
2022/03/23 04:24:21;;;;;;;20.63;8.80;;;0.60;99.90;;;;;;4972397;28;20183;-74
2022/03/23 04:26:46;;;;;;;11.77;8.47;;;0.60;99.90;;;;;;4973342;28;20180;-73
2022/03/23 04:29:12;;;;;;;20.07;10.23;;;0.60;99.90;;;;;;4973093;28;20193;-74
2022/03/23 04:31:38;;;;;;;17.63;9.77;;;0.60;99.90;;;;;;4971693;28;20280;-74
2022/03/23 04:34:04;;;;;;;16.80;10.37;;;0.60;99.90;;;;;;4972102;28;20598;-74
2022/03/23 04:36:29;;;;;;;16.30;11.17;;;0.50;99.90;;;;;;4972876;28;20431;-74
2022/03/23 04:38:54;;;;;;;23.67;11.63;;;0.50;99.90;;;;;;4973266;28;20176;-73
2022/03/23 04:41:20;;;;;;;18.23;10.43;;;0.50;99.90;;;;;;4972713;28;20204;-73
2022/03/23 04:43:45;;;;;;;14.90;10.80;;;0.50;99.90;;;;;;4971892;28;20208;-73
2022/03/23 04:46:13;;;;;;;21.23;11.00;;;0.50;99.90;;;;;;4972377;28;20186;-73
2022/03/23 04:48:38;;;;;;;19.30;11.70;;;0.50;99.90;;;;;;4972689;28;20184;-73
2022/03/23 04:51:05;;;;;;;22.20;12.67;;;0.50;99.90;;;;;;4972971;28;20907;-72
2022/03/23 04:53:30;;;;;;;16.20;10.17;;;0.40;99.90;;;;;;4971641;28;20178;-74
2022/03/23 04:55:56;;;;;;;16.93;10.63;;;0.40;99.90;;;;;;4972591;28;20412;-73
2022/03/23 04:58:22;;;;;;;17.13;10.63;;;0.40;99.90;;;;;;4972344;28;20170;-73
2022/03/23 05:00:47;;;;;;;17.23;10.90;;;0.40;99.90;;;;;;4971785;28;20176;-73
2022/03/23 05:03:15;;;;;;;14.83;11.23;;;0.50;99.90;;;;;;4971835;28;20198;-73
2022/03/23 05:05:41;;;;;;;21.90;11.10;;;0.50;99.90;;;;;;4972173;28;20246;-73
2022/03/23 05:08:07;;;;;;;17.50;10.87;;;0.50;99.90;;;;;;4972553;28;20408;-73
2022/03/23 05:10:32;;;;;;;22.57;11.57;;;0.50;99.90;;;;;;4972398;28;21063;-72
2022/03/23 05:12:58;;;;;;;17.97;11.27;;;0.50;99.90;;;;;;4971436;28;20172;-71
2022/03/23 05:15:23;;;;;;;15.57;10.40;;;0.50;99.90;;;;;;4971527;28;20210;-73
2022/03/23 05:17:49;;;;;;;16.37;11.00;;;0.50;99.90;;;;;;4972259;28;20185;-76
2022/03/23 05:20:17;;;;;;;17.93;11.43;;;0.50;99.90;;;;;;4971966;28;20209;-74
2022/03/23 05:22:43;;;;;;;22.90;11.33;;;0.50;99.90;;;;;;4971459;28;20204;-71
2022/03/23 05:25:09;;;;;;;16.53;11.20;;;0.60;99.90;;;;;;4971598;28;20825;-75
2022/03/23 05:27:36;;;;;;;17.43;10.43;;;0.60;99.90;;;;;;4971846;28;20177;-75
2022/03/23 05:30:04;;;;;;;20.07;11.50;;;0.60;99.90;;;;;;4971212;28;20456;-74
2022/03/23 05:32:29;;;;;;;20.20;10.80;;;0.60;99.90;;;;;;4972041;28;20460;-75
2022/03/23 05:34:55;;;;;;;18.83;11.23;;;0.60;99.90;;;;;;4971118;28;20968;-74
2022/03/23 05:37:22;;;;;;;19.80;11.17;;;0.60;99.90;;;;;;4971934;28;20173;-74
2022/03/23 05:39:47;;;;;;;16.87;10.10;;;0.70;99.90;;;;;;4971644;28;20172;-75
2022/03/23 05:42:13;;;;;;;17.60;10.17;;;0.70;99.90;;;;;;4971166;28;20442;-75
2022/03/23 05:44:40;;;;;;;20.80;11.33;;;0.80;99.90;;;;;;4970782;28;20241;-74
2022/03/23 05:47:06;;;;;;;18.30;11.00;;;0.80;99.90;;;;;;4971602;28;20437;-74
2022/03/23 05:49:32;;;;;;;18.80;10.73;;;0.80;99.90;;;;;;4971546;28;20908;-74
2022/03/23 05:51:58;;;;;;;21.90;11.80;;;0.90;99.90;;;;;;4971385;28;20437;-73
2022/03/23 05:54:24;;;;;;;20.77;12.77;;;0.90;99.90;;;;;;4970757;28;20468;-75
2022/03/23 05:56:50;;;;;;;16.43;10.60;;;1.00;99.90;;;;;;4970960;28;20784;-74
2022/03/23 05:59:16;;;;;;;21.77;11.70;;;1.10;99.90;;;;;;4971252;28;20210;-75
2022/03/23 06:01:42;;;;;;;18.90;11.17;;;1.30;99.90;;;;;;4971506;28;20432;-74
2022/03/23 06:04:08;;;;;;;16.43;11.17;;;1.40;99.90;;;;;;4970906;28;20766;-74
2022/03/23 06:06:34;;;;;;;20.90;11.70;;;1.50;99.90;;;;;;4971620;28;20651;-74
2022/03/23 06:08:59;;;;;;;19.27;11.30;;;2.20;99.90;;;;;;4970669;28;20438;-73
2022/03/23 06:11:25;;;;;;;21.40;11.00;;;3.50;99.90;;;;;;4970992;28;20207;-74
2022/03/23 06:13:50;;;;;;;20.90;11.93;;;5.00;99.90;;;;;;4970757;28;20223;-75
2022/03/23 06:16:16;;;;;;;15.27;10.33;;;6.40;99.90;;;;;;4971117;28;20241;-75
2022/03/23 06:18:42;;;;;;;17.97;11.23;;;7.40;99.90;;;;;;4971063;28;20173;-75
2022/03/23 06:21:08;;;;;;;20.53;11.93;;;7.90;99.90;;;;;;4970638;28;21049;-75
2022/03/23 06:23:33;;;;;;;18.27;11.87;;;8.70;99.90;;;;;;4970418;28;20180;-75
2022/03/23 06:26:00;;;;;;;19.50;11.87;;;9.50;99.90;;;;;;4983671;28;20187;-75
2022/03/23 06:28:25;;;;;;;23.70;13.67;;;10.00;99.90;;;;;;4986327;28;20185;-75
2022/03/23 06:30:51;;;;;;;15.90;12.67;;;10.60;99.90;;;;;;4980272;28;20422;-76
2022/03/23 06:33:18;;;;;;;17.87;11.97;;;10.90;99.90;;;;;;4988241;28;20180;-74
2022/03/23 06:35:43;;;;;;;18.90;13.47;;;11.30;99.90;;;;;;4986808;28;21057;-75
2022/03/23 06:38:09;;;;;;;21.33;12.27;;;11.30;99.90;;;;;;4990137;28;20442;-75
2022/03/23 06:40:34;;;;;;;18.50;12.97;;;11.60;99.90;;;;;;4990190;28;20186;-75
2022/03/23 06:43:00;;;;;;;20.23;14.93;;;12.30;99.90;;;;;;4992094;28;20199;-72
2022/03/23 06:45:26;;;;;;;18.13;13.27;;;12.90;99.90;;;;;;4994550;28;20179;-77
2022/03/23 06:47:52;;;;;;;22.87;14.43;;;13.50;99.90;;;;;;4993987;28;20426;-78
2022/03/23 06:50:17;;;;;;;30.07;16.47;;;13.80;99.90;;;;;;4994639;28;20180;-75
2022/03/23 06:52:43;;;;;;;18.07;13.60;;;14.10;99.90;;;;;;4994193;28;20203;-75
2022/03/23 06:55:09;;;;;;;23.90;15.93;;;14.60;99.90;;;;;;4992708;28;20591;-77
2022/03/23 06:57:35;;;;;;;26.57;16.80;;;14.90;99.90;;;;;;4994216;28;20573;-77
2022/03/23 07:00:01;;;;;;;25.30;17.93;;;15.50;99.90;;;;;;4994404;28;20315;-77
2022/03/23 07:02:27;;;;;;;22.37;16.87;;;15.90;99.90;;;;;;4992962;28;20199;-77
2022/03/23 07:04:52;;;;;;;29.10;17.33;;;15.70;99.90;;;;;;4992840;28;20407;-75
2022/03/23 07:07:18;;;;;;;20.93;17.07;;;16.30;99.90;;;;;;4993789;28;20178;-72
2022/03/23 07:09:44;;;;;;;25.20;15.90;;;16.60;99.90;;;;;;4993983;28;20172;-76
2022/03/23 07:12:10;;;;;;;22.93;17.90;;;16.60;98.10;;;;;;4993772;28;20438;-77
2022/03/23 07:14:40;;;;;;;26.70;18.63;;;17.00;97.70;;;;;;4993190;28;20619;-76
2022/03/23 07:17:06;;;;;;;30.30;19.63;;;16.40;97.30;;;;;;4992569;28;20414;-77
2022/03/23 07:19:32;;;;;;;26.20;18.23;;;15.80;97.60;;;;;;4993761;28;20785;-75
2022/03/23 07:21:58;;;;;;;39.00;19.87;;;15.30;97.80;;;;;;4992243;28;20445;-74
2022/03/23 07:24:25;;;;;;;20.90;17.63;;;14.80;98.30;;;;;;4992563;28;20430;-75
2022/03/23 07:26:51;;;;;;;24.13;20.23;;;13.80;98.50;;;;;;4993619;28;20218;-75
2022/03/23 07:29:17;;;;;;;25.47;18.30;;;13.90;99.90;;;;;;4994787;28;20444;-76
2022/03/23 07:31:43;;;;;;;28.57;20.73;;;13.70;99.90;;;;;;4993206;28;20496;-76
2022/03/23 07:34:09;;;;;;;28.27;19.10;;;13.50;99.90;;;;;;4992757;28;20277;-76
2022/03/23 07:36:37;;;;;;;23.47;17.90;;;13.40;99.90;;;;;;4993415;28;20407;-75
2022/03/23 07:39:03;;;;;;;36.13;19.13;;;13.40;99.90;;;;;;4993190;28;20245;-75
2022/03/23 07:41:28;;;;;;;26.30;18.83;;;13.50;99.90;;;;;;4993191;28;20450;-75
2022/03/23 07:43:54;;;;;;;27.53;19.50;;;13.70;99.90;;;;;;4992386;28;20926;-76
2022/03/23 07:46:19;;;;;;;25.70;19.13;;;13.90;99.90;;;;;;4993138;28;20545;-75
2022/03/23 07:48:45;;;;;;;30.33;20.67;;;13.40;99.90;;;;;;4993161;28;20191;-75
2022/03/23 07:51:11;;;;;;;27.43;18.80;;;13.50;99.90;;;;;;4992618;28;20278;-75
2022/03/23 07:53:36;;;;;;;22.80;18.63;;;14.00;99.90;;;;;;4991075;28;20551;-76
2022/03/23 07:56:02;;;;;;;31.50;19.83;;;14.40;99.90;;;;;;4992768;28;20175;-76
2022/03/23 07:58:29;;;;;;;25.73;20.00;;;14.30;99.70;;;;;;4992955;28;20193;-76
2022/03/23 08:00:55;;;;;;;27.87;18.60;;;14.60;99.90;;;;;;4992809;28;20202;-74
2022/03/23 08:03:20;;;;;;;32.70;19.43;;;14.90;99.90;;;;;;4992241;28;20415;-75
2022/03/23 08:05:47;;;;;;;28.03;20.03;;;15.10;99.90;;;;;;4992158;28;20179;-75
2022/03/23 08:08:13;;;;;;;27.63;17.80;;;15.10;99.20;;;;;;4992838;28;20627;-75
2022/03/23 08:10:43;;;;;;;31.40;18.33;;;15.40;99.20;;;;;;4992450;28;20415;-75
2022/03/23 08:13:09;;;;;;;25.37;19.03;;;15.70;98.40;;;;;;4992079;28;20286;-75
2022/03/23 08:15:39;;;;;;;25.10;17.83;;;15.70;99.90;;;;;;4991930;28;20489;-75
2022/03/23 08:18:05;;;;;;;27.00;19.40;;;16.00;99.90;;;;;;4992549;28;20411;-75
2022/03/23 08:20:35;;;;;;;26.20;18.53;;;15.80;98.60;;;;;;4992038;28;20930;-74
2022/03/23 08:23:06;;;;;;;31.77;19.87;;;15.80;97.50;;;;;;4991247;28;20983;-75
2022/03/23 08:25:33;;;;;;;22.10;17.33;;;15.50;98.80;;;;;;4992211;28;20935;-75
2022/03/23 08:28:00;;;;;;;27.10;18.83;;;16.10;98.70;;;;;;4992290;28;20418;-75
2022/03/23 08:30:26;;;;;;;28.27;19.40;;;16.40;97.40;;;;;;4992370;28;20479;-76
2022/03/23 08:32:52;;;;;;;23.90;17.37;;;16.80;96.30;;;;;;4991849;28;20467;-75
2022/03/23 08:35:17;;;;;;;26.03;17.67;;;17.20;95.80;;;;;;4992240;28;20466;-75
2022/03/23 08:37:43;;;;;;;24.10;17.03;;;17.40;95.90;;;;;;4991547;28;20175;-76
2022/03/23 08:40:09;;;;;;;27.93;17.33;;;17.70;95.80;;;;;;4992162;28;20593;-76
2022/03/23 08:42:34;;;;;;;25.77;18.40;;;17.80;94.90;;;;;;4993609;28;20268;-76
2022/03/23 08:45:01;;;;;;;25.87;17.67;;;17.70;94.10;;;;;;4992010;28;20184;-76
2022/03/23 08:47:30;;;;;;;21.73;17.10;;;17.90;93.70;;;;;;4993024;28;20655;-75
2022/03/23 08:49:58;;;;;;;21.27;15.57;;;17.90;91.50;;;;;;4991873;28;20497;-74
2022/03/23 08:52:25;;;;;;;23.50;17.10;;;18.40;93.30;;;;;;4990948;28;20528;-75
2022/03/23 08:54:51;;;;;;;23.47;17.10;;;18.50;91.10;;;;;;4991662;28;20485;-75
2022/03/23 08:57:16;;;;;;;21.40;16.40;;;18.60;90.70;;;;;;4992315;28;20406;-76
2022/03/23 08:59:42;;;;;;;20.63;16.47;;;18.40;89.50;;;;;;4991418;28;20191;-76
2022/03/23 09:02:07;;;;;;;22.13;16.37;;;18.60;85.40;;;;;;4992731;28;20650;-76
2022/03/23 09:04:33;;;;;;;20.93;16.43;;;18.80;86.70;;;;;;4987248;28;20208;-75
2022/03/23 09:06:58;;;;;;;18.67;16.63;;;19.00;85.30;;;;;;4980574;28;20389;-75
2022/03/23 09:09:24;;;;;;;28.20;20.10;;;19.20;83.70;;;;;;4979089;28;20674;-76
2022/03/23 09:11:50;;;;;;;23.17;16.93;;;19.50;87.10;;;;;;4987592;28;20222;-75
2022/03/23 09:14:16;;;;;;;24.47;18.47;;;19.40;87.90;;;;;;4989962;28;20458;-75
2022/03/23 09:16:41;;;;;;;30.93;18.43;;;19.40;88.50;;;;;;4991153;28;20254;-75
2022/03/23 09:19:07;;;;;;;25.57;18.60;;;19.60;87.50;;;;;;4991749;28;20259;-75
2022/03/23 09:21:33;;;;;;;28.63;20.47;;;19.80;87.70;;;;;;4977983;28;20207;-75
2022/03/23 09:23:59;;;;;;;27.27;20.00;;;19.90;87.10;;;;;;4990439;28;20522;-75
2022/03/23 09:26:24;;;;;;;25.97;18.27;;;19.80;85.40;;;;;;4990652;28;20438;-75
2022/03/23 09:28:53;;;;;;;43.40;20.47;;;19.90;85.70;;;;;;4991133;28;20193;-75
2022/03/23 09:31:18;;;;;;;27.60;19.67;;;19.60;82.80;;;;;;4990930;28;20211;-74
2022/03/23 09:33:48;;;;;;;24.80;19.97;;;19.60;86.00;;;;;;4990484;28;20426;-75
2022/03/23 09:37:47;;;;;;;25.17;19.60;;;20.10;85.50;;;;;;4989698;28;20237;-76
2022/03/23 09:39:06;;;;;;;29.53;19.93;;;20.00;82.20;;;;;;4990828;28;20422;-74
2022/03/23 09:41:33;;;;;;;25.67;19.00;;;20.00;81.10;;;;;;4990879;28;20427;-74
2022/03/23 09:43:59;;;;;;;35.93;19.60;;;20.10;80.70;;;;;;4990105;28;20190;-74
2022/03/23 09:46:24;;;;;;;23.07;16.80;;;20.40;79.30;;;;;;4990163;28;20906;-74
2022/03/23 09:48:50;;;;;;;28.27;19.70;;;20.50;76.10;;;;;;4990836;28;20179;-77
2022/03/23 09:51:17;;;;;;;26.80;18.97;;;20.50;76.80;;;;;;4976728;28;20337;-75
2022/03/23 09:53:43;;;;;;;28.90;17.40;;;20.60;77.40;;;;;;4969134;28;20278;-75
2022/03/23 09:56:08;;;;;;;24.23;17.40;;;21.00;75.00;;;;;;4970969;28;20419;-75
2022/03/23 09:58:34;;;;;;;21.57;16.97;;;20.80;73.00;;;;;;4976357;28;20419;-75
2022/03/23 10:01:00;;;;;;;20.40;16.40;;;21.20;72.50;;;;;;4977843;28;20220;-75
2022/03/23 10:03:45;;;;;;;23.87;16.40;;;20.90;69.90;;;;;;4990109;28;20279;-75
2022/03/23 10:06:39;;;;;;;27.23;15.53;;;20.90;69.60;;;;;;4989480;28;20419;-75
2022/03/23 10:09:26;;;;;;;26.23;16.80;;;21.30;67.10;;;;;;4990697;28;20461;-75
2022/03/23 10:12:13;;;;;;;19.97;16.67;;;21.00;66.20;;;;;;4990920;28;20981;-75
2022/03/23 10:15:03;;;;;;;21.63;16.03;;;21.30;67.60;;;;;;4989646;28;20454;-75
2022/03/23 10:17:48;;;;;;;19.20;15.63;;;21.20;64.30;;;;;;4991748;28;20493;-75
2022/03/23 10:20:14;;;;;;;20.40;16.17;;;21.20;65.00;;;;;;4994047;28;20941;-76
2022/03/23 10:22:48;;;;;;;17.63;14.43;;;21.20;64.50;;;;;;4991036;28;20458;-75
2022/03/23 10:25:15;;;;;;;17.77;13.80;;;21.50;62.50;;;;;;4994407;28;20485;-75
2022/03/23 10:27:41;;;;;;;18.60;14.30;;;21.70;64.70;;;;;;4985079;28;20455;-75
2022/03/23 10:30:07;;;;;;;17.13;14.97;;;21.00;59.80;;;;;;4975215;28;20582;-75
2022/03/23 10:32:34;;;;;;;16.23;14.50;;;21.20;59.60;;;;;;4974784;28;20236;-75
2022/03/23 10:35:00;;;;;;;21.13;14.47;;;21.40;59.60;;;;;;4988609;28;20470;-75
2022/03/23 10:37:28;;;;;;;16.50;13.70;;;21.90;59.90;;;;;;4994432;28;20981;-76
2022/03/23 10:39:56;;;;;;;16.20;14.50;;;22.40;58.20;;;;;;4994288;28;20258;-75
2022/03/23 10:42:26;;;;;;;15.90;14.27;;;21.90;56.70;;;;;;4994465;28;20430;-75
2022/03/23 10:45:08;;;;;;;19.17;14.40;;;22.00;58.10;;;;;;4993430;28;20505;-75
2022/03/23 10:47:34;;;;;;;20.60;14.50;;;22.00;57.40;;;;;;4994094;28;20414;-76
2022/03/23 10:50:18;;;;;;;23.03;16.27;;;22.20;58.00;;;;;;4993951;28;20415;-75
2022/03/23 10:52:53;;;;;;;18.03;14.33;;;21.50;57.80;;;;;;4993854;28;20493;-73
2022/03/23 10:55:19;;;;;;;17.73;13.90;;;21.60;59.00;;;;;;4980189;28;20470;-74
2022/03/23 10:58:05;;;;;;;16.80;13.80;;;22.00;59.30;;;;;;4984766;28;20426;-76
2022/03/23 11:00:42;;;;;;;20.73;16.77;;;22.10;57.60;;;;;;4970124;28;20892;-75
2022/03/23 11:03:09;;;;;;;16.97;14.93;;;22.10;57.70;;;;;;4984581;28;20517;-75
2022/03/23 11:05:39;;;;;;;15.77;12.33;;;22.00;57.00;;;;;;4979561;28;20482;-76
2022/03/23 11:08:09;;;;;;;14.70;11.93;;;22.10;55.50;;;;;;4982442;28;20422;-76
2022/03/23 11:16:16;;;;;;;16.80;13.00;;;22.60;55.10;;;;;;4993134;28;20414;-75
2022/03/23 11:18:42;;;;;;;14.90;11.90;;;22.50;54.00;;;;;;4992281;28;20985;-75
2022/03/23 11:21:08;;;;;;;14.20;12.80;;;22.00;51.60;;;;;;4994389;28;20434;-75
2022/03/23 11:23:36;;;;;;;15.27;12.30;;;21.50;53.30;;;;;;4993535;28;20183;-76
2022/03/23 11:26:07;;;;;;;14.27;12.83;;;21.20;54.20;;;;;;4993026;28;20473;-75
2022/03/23 11:28:45;;;;;;;14.17;12.50;;;21.20;53.40;;;;;;4993380;28;20763;-76
2022/03/23 11:31:13;;;;;;;12.13;10.93;;;20.80;52.40;;;;;;4993388;28;20954;-76
2022/03/23 11:33:39;;;;;;;17.00;11.93;;;20.90;54.90;;;;;;4992596;28;20482;-74
2022/03/23 11:36:09;;;;;;;17.90;14.00;;;21.00;52.20;;;;;;4993770;28;20816;-75
2022/03/23 11:38:37;;;;;;;11.97;10.10;;;21.30;52.30;;;;;;4992910;28;20541;-76
2022/03/23 11:41:03;;;;;;;13.80;12.37;;;21.80;53.00;;;;;;4993085;28;20450;-75
2022/03/23 11:43:29;;;;;;;12.57;11.23;;;21.80;52.70;;;;;;4993114;28;20927;-77
2022/03/23 11:45:56;;;;;;;14.93;11.47;;;21.80;53.50;;;;;;4993167;28;20509;-77
2022/03/23 11:48:53;;;;;;;12.97;10.63;;;22.00;54.10;;;;;;4993524;28;20668;-76
2022/03/23 11:51:54;;;;;;;15.20;10.60;;;21.90;53.60;;;;;;4993208;28;21005;-76
2022/03/23 11:57:54;;;;;;;14.27;11.43;;;21.00;51.40;;;;;;4993760;28;20454;-75
2022/03/23 12:00:21;;;;;;;13.13;11.53;;;20.80;52.40;;;;;;4992315;28;20411;-75
2022/03/23 12:02:46;;;;;;;13.53;11.40;;;20.40;51.00;;;;;;4992191;28;20507;-75
2022/03/23 12:05:48;;;;;;;14.30;12.10;;;19.90;51.60;;;;;;4993831;28;20505;-75
2022/03/23 12:08:47;;;;;;;17.87;11.20;;;19.60;54.70;;;;;;4980125;28;20207;-77
2022/03/23 12:11:43;;;;;;;13.50;11.00;;;20.00;52.60;;;;;;4992527;28;20434;-77
2022/03/23 12:14:23;;;;;;;15.57;12.03;;;20.10;54.00;;;;;;4989006;28;20493;-78
2022/03/23 12:16:52;;;;;;;13.97;12.47;;;20.20;55.00;;;;;;4993794;28;20453;-77
2022/03/23 12:19:30;;;;;;;14.10;12.60;;;20.10;53.40;;;;;;4993445;28;20423;-76
2022/03/23 12:21:55;;;;;;;18.97;11.53;;;19.90;52.80;;;;;;4990444;28;20497;-77
2022/03/23 12:24:58;;;;;;;16.33;11.30;;;19.90;54.40;;;;;;4975265;28;20420;-76
2022/03/23 12:27:34;;;;;;;14.70;10.17;;;20.00;52.20;;;;;;4973447;28;20582;-76
2022/03/23 12:30:05;;;;;;;15.57;11.33;;;20.10;52.70;;;;;;4973424;28;20825;-75
2022/03/23 12:32:38;;;;;;;13.67;12.20;;;20.00;53.20;;;;;;4981150;28;20525;-75
2022/03/23 12:35:05;;;;;;;17.43;13.33;;;20.10;54.10;;;;;;4974787;28;20467;-75
2022/03/23 12:37:39;;;;;;;13.83;12.03;;;20.10;53.80;;;;;;4973251;28;20416;-75
2022/03/23 12:40:09;;;;;;;11.80;10.60;;;20.10;55.40;;;;;;4972818;28;20951;-76
2022/03/23 12:42:41;;;;;;;11.80;10.60;;;20.10;52.90;;;;;;4970919;28;20444;-76
2022/03/23 12:45:17;;;;;;;12.90;11.03;;;20.00;52.90;;;;;;4970749;28;20963;-77
2022/03/23 12:47:53;;;;;;;13.97;11.83;;;20.10;53.10;;;;;;4972528;28;20831;-75
2022/03/23 12:59:14;;;;;;;16.53;11.40;;;19.70;53.70;;;;;;4972104;28;20543;-73
2022/03/23 13:01:40;;;;;;;12.40;10.20;;;19.60;52.90;;;;;;4971913;28;20818;-71
2022/03/23 13:04:05;;;;;;;15.77;10.33;;;19.40;52.10;;;;;;4974753;28;20419;-73
2022/03/23 13:06:33;;;;;;;14.43;10.17;;;19.20;52.10;;;;;;4972882;28;20243;-73
2022/03/23 13:08:59;;;;;;;12.73;10.47;;;19.10;51.20;;;;;;4971120;28;20188;-72
2022/03/23 13:11:29;;;;;;;15.33;9.80;;;19.00;49.60;;;;;;4974536;28;20499;-73
2022/03/23 13:13:57;;;;;;;13.60;11.40;;;18.90;49.00;;;;;;4972197;28;20447;-73
2022/03/23 13:16:35;;;;;;;19.10;12.47;;;18.80;51.30;;;;;;4973251;28;20431;-74
2022/03/23 13:19:02;;;;;;;10.57;9.43;;;18.80;52.90;;;;;;4971954;28;20928;-73
2022/03/23 13:21:31;;;;;;;16.43;12.07;;;18.90;53.20;;;;;;4972913;28;20497;-73
2022/03/23 13:24:01;;;;;;;14.70;11.30;;;18.90;54.60;;;;;;4970687;28;20415;-73
2022/03/23 13:26:28;;;;;;;19.07;11.87;;;19.00;54.90;;;;;;4973200;28;20510;-73
2022/03/23 13:28:58;;;;;;;14.00;11.73;;;18.90;55.90;;;;;;4971149;28;20470;-74
2022/03/23 13:31:34;;;;;;;15.33;11.20;;;18.90;54.70;;;;;;4973120;28;20505;-76
2022/03/23 13:34:09;;;;;;;11.97;10.73;;;19.00;54.50;;;;;;4973146;28;20462;-74
2022/03/23 13:36:37;;;;;;;13.23;10.97;;;19.00;54.90;;;;;;4973518;28;20419;-74
2022/03/23 13:39:19;;;;;;;12.33;10.43;;;19.10;55.20;;;;;;4972462;28;20575;-73
2022/03/23 13:44:56;;;;;;;13.33;11.10;;;19.30;55.70;;;;;;4971131;28;20419;-73
2022/03/23 13:47:36;;;;;;;12.80;10.77;;;19.30;55.50;;;;;;4972089;28;20539;-73
2022/03/23 13:50:08;;;;;;;12.70;11.07;;;19.30;55.90;;;;;;4971331;28;20425;-73
2022/03/23 13:52:36;;;;;;;17.37;10.60;;;19.30;55.30;;;;;;4970912;28;20443;-74
2022/03/23 13:55:04;;;;;;;12.50;10.73;;;19.20;54.30;;;;;;4970318;28;20554;-74
2022/03/23 13:57:30;;;;;;;11.27;10.17;;;19.20;53.60;;;;;;4971109;28;20511;-73
2022/03/23 13:59:56;;;;;;;15.07;10.57;;;19.20;52.60;;;;;;4984766;28;20866;-73
2022/03/23 14:02:25;;;;;;;18.97;12.47;;;19.30;53.70;;;;;;4989341;28;20195;-73
2022/03/23 14:04:51;;;;;;;16.10;11.67;;;19.10;53.50;;;;;;4986596;28;20446;-73
2022/03/23 14:07:17;;;;;;;11.93;10.30;;;19.00;53.70;;;;;;4987719;28;20849;-74
2022/03/23 14:09:42;;;;;;;13.67;10.27;;;18.90;52.70;;;;;;4983701;28;20590;-73
2022/03/23 14:12:13;;;;;;;13.77;11.90;;;18.80;52.10;;;;;;4990799;28;20203;-74
2022/03/23 14:14:40;;;;;;;16.83;11.80;;;18.90;53.70;;;;;;4987057;28;20289;-73
2022/03/23 14:17:25;;;;;;;17.93;11.37;;;18.90;53.90;;;;;;4984393;28;20881;-74
2022/03/23 14:19:54;;;;;;;16.87;12.00;;;19.00;54.20;;;;;;4984889;28;20515;-72
2022/03/23 14:22:22;;;;;;;19.20;12.10;;;18.90;53.70;;;;;;4983524;28;20502;-74
2022/03/23 14:24:49;;;;;;;16.00;11.83;;;18.80;53.30;;;;;;4987538;28;20465;-74
2022/03/23 14:27:16;;;;;;;14.20;12.70;;;18.90;55.50;;;;;;4983085;28;20425;-74
2022/03/23 14:29:56;;;;;;;14.73;12.10;;;18.90;55.30;;;;;;4980945;28;20461;-72